Time;durP1;ratioP1;P1;durP2;ratioP2;P2;SDS_P1;SDS_P2;PMS_P1;PMS_P2;Temp;Humidity;BMP_temperature;BMP_pressure;BME280_temperature;BME280_humidity;BME280_pressure;Samples;Min_cycle;Max_cycle;Signal;HPM_P1;HPM_P2
2022/12/12 00:01:14;;;;;;;16.40;12.75;;;;;;;0.41;100.00;101057.66;5135750;27;20027;-36
2022/12/12 00:03:39;;;;;;;16.92;12.85;;;;;;;0.45;100.00;101074.97;5136475;27;20113;-36
2022/12/12 00:06:05;;;;;;;13.37;11.57;;;;;;;0.50;100.00;101084.16;5135555;27;20123;-35
2022/12/12 00:08:30;;;;;;;15.13;11.83;;;;;;;0.40;100.00;101085.28;5135868;27;20267;-36
2022/12/12 00:10:55;;;;;;;18.17;13.37;;;;;;;0.28;100.00;101089.19;5135738;27;20056;-36
2022/12/12 00:13:21;;;;;;;16.27;12.63;;;;;;;0.17;100.00;101083.16;5135754;27;20531;-37
2022/12/12 00:15:46;;;;;;;17.30;13.47;;;;;;;0.14;100.00;101090.59;5135961;27;20084;-36
2022/12/12 00:18:11;;;;;;;16.67;12.67;;;;;;;0.11;100.00;101067.81;5135473;27;20027;-36
2022/12/12 00:20:36;;;;;;;14.00;11.10;;;;;;;0.14;100.00;101064.81;5135551;27;20027;-36
2022/12/12 00:23:02;;;;;;;15.20;12.30;;;;;;;0.15;100.00;101074.50;5136167;27;20035;-36
2022/12/12 00:25:27;;;;;;;15.97;13.17;;;;;;;0.07;100.00;101087.72;5135316;27;20029;-36
2022/12/12 00:27:52;;;;;;;18.73;12.80;;;;;;;0.09;100.00;101084.91;5135542;27;20058;-36
2022/12/12 00:30:18;;;;;;;14.13;11.30;;;;;;;0.13;100.00;101083.63;5135426;27;20412;-35
2022/12/12 00:32:43;;;;;;;16.80;12.57;;;;;;;-0.01;100.00;101063.75;5135438;27;20356;-35
2022/12/12 00:35:09;;;;;;;14.73;11.67;;;;;;;0.14;100.00;101078.13;5134594;27;20524;-36
2022/12/12 00:37:34;;;;;;;15.20;11.70;;;;;;;0.12;100.00;101079.28;5135588;27;20034;-36
2022/12/12 00:39:59;;;;;;;17.17;13.53;;;;;;;-0.03;100.00;101087.00;5135566;27;20023;-36
2022/12/12 00:42:26;;;;;;;18.47;12.93;;;;;;;-0.12;100.00;101095.91;5135701;27;20453;-36
2022/12/12 00:44:51;;;;;;;;;;;;;;;-0.06;100.00;101097.94;5135865;27;20129;-35
2022/12/12 00:47:16;;;;;;;17.23;11.70;;;;;;;-0.13;100.00;101091.59;5134940;27;20398;-36
2022/12/12 00:49:42;;;;;;;16.23;12.17;;;;;;;-0.19;100.00;101086.91;5135604;27;20034;-36
2022/12/12 00:52:07;;;;;;;15.27;12.47;;;;;;;-0.17;100.00;101100.88;5134871;27;20029;-36
2022/12/12 00:54:32;;;;;;;15.43;12.33;;;;;;;-0.28;100.00;101088.66;5135312;27;20103;-36
2022/12/12 00:56:58;;;;;;;17.37;13.40;;;;;;;-0.42;100.00;101092.69;5134883;27;20037;-36
2022/12/12 00:59:23;;;;;;;15.87;12.77;;;;;;;-0.45;100.00;101092.16;5134885;27;20027;-36
2022/12/12 01:01:48;;;;;;;17.00;13.17;;;;;;;-0.43;100.00;101099.00;5134801;27;20023;-36
2022/12/12 01:04:14;;;;;;;16.07;12.90;;;;;;;-0.45;100.00;101102.78;5134763;27;20031;-36
2022/12/12 01:06:39;;;;;;;18.23;12.32;;;;;;;-0.48;100.00;101106.59;5134926;27;20268;-36
2022/12/12 01:09:05;;;;;;;13.97;11.63;;;;;;;-0.37;100.00;101098.38;5135185;27;20027;-36
2022/12/12 01:11:30;;;;;;;16.20;13.57;;;;;;;-0.56;100.00;101093.22;5134375;27;20065;-36
2022/12/12 01:13:56;;;;;;;14.48;11.98;;;;;;;-0.46;100.00;101112.59;5135214;27;20031;-36
2022/12/12 01:16:22;;;;;;;16.10;11.60;;;;;;;-0.43;100.00;101106.97;5134239;27;20023;-36
2022/12/12 01:18:48;;;;;;;15.98;12.55;;;;;;;-0.55;100.00;101094.91;5134280;27;20082;-36
2022/12/12 01:21:15;;;;;;;18.58;14.13;;;;;;;-0.61;100.00;101098.16;5132227;27;20035;-36
2022/12/12 01:23:41;;;;;;;15.73;12.73;;;;;;;-0.51;100.00;101120.19;5134622;27;20103;-36
2022/12/12 01:26:15;;;;;;;18.63;13.55;;;;;;;-0.58;100.00;101119.13;5134148;27;20031;-36
2022/12/12 01:28:41;;;;;;;19.13;13.75;;;;;;;-0.76;100.00;101105.00;5116976;27;20479;-36
2022/12/12 01:31:07;;;;;;;;;;;;;;;-0.51;100.00;101133.47;5134394;27;20471;-36
2022/12/12 01:33:32;;;;;;;16.77;12.45;;;;;;;-0.62;100.00;101115.94;5134947;27;19918;-36
2022/12/12 01:35:57;;;;;;;14.70;12.03;;;;;;;-0.53;100.00;101133.63;5134193;27;20027;-36
2022/12/12 01:38:23;;;;;;;16.80;12.27;;;;;;;-0.56;100.00;101128.59;5134398;27;20030;-36
2022/12/12 01:40:50;;;;;;;16.67;12.70;;;;;;;-0.54;100.00;101125.78;5134168;27;20023;-36
2022/12/12 01:43:17;;;;;;;18.90;13.57;;;;;;;-0.57;100.00;101139.38;5133218;27;20116;-36
2022/12/12 01:46:20;;;;;;;18.85;13.25;;;;;;;-0.52;100.00;101134.44;5133842;27;20092;-36
2022/12/12 01:48:55;;;;;;;16.33;12.65;;;;;;;-0.55;100.00;101138.22;5120259;27;20043;-36
2022/12/12 01:51:23;;;;;;;15.32;11.57;;;;;;;-0.47;100.00;101147.28;5133928;27;20029;-36
2022/12/12 01:53:53;;;;;;;16.33;12.90;;;;;;;-0.56;100.00;101143.72;5134336;27;20038;-36
2022/12/12 01:56:20;;;;;;;16.88;13.35;;;;;;;-0.57;100.00;101144.69;5133993;27;20023;-36
2022/12/12 01:58:50;;;;;;;16.77;13.05;;;;;;;-0.65;100.00;101150.75;5133947;27;20027;-37
2022/12/12 02:01:15;;;;;;;23.27;14.98;;;;;;;-0.65;100.00;101144.59;5133703;27;20035;-36
2022/12/12 02:03:42;;;;;;;17.65;12.65;;;;;;;-0.56;100.00;101143.72;5132633;28;20532;-37
2022/12/12 02:06:12;;;;;;;16.75;12.65;;;;;;;-0.63;100.00;101153.28;5133903;27;20111;-36
2022/12/12 02:08:38;;;;;;;19.17;13.70;;;;;;;-0.56;100.00;101146.38;5134415;27;20031;-36
2022/12/12 02:11:05;;;;;;;16.25;12.25;;;;;;;-0.54;100.00;101157.66;5133806;27;20023;-36
2022/12/12 02:13:32;;;;;;;18.88;14.50;;;;;;;-0.71;100.00;101156.66;5134083;27;20055;-36
2022/12/12 02:16:24;;;;;;;17.42;12.85;;;;;;;-0.67;100.00;101151.91;5133942;27;20027;-36
2022/12/12 02:18:59;;;;;;;15.98;12.35;;;;;;;-0.61;100.00;101152.13;5134278;27;20038;-36
2022/12/12 02:21:36;;;;;;;18.48;13.30;;;;;;;-0.60;100.00;101160.94;5133953;27;20087;-36
2022/12/12 02:24:12;;;;;;;16.30;12.68;;;;;;;-0.61;100.00;101152.13;5133680;28;20052;-35
2022/12/12 02:27:07;;;;;;;17.00;12.70;;;;;;;-0.61;100.00;101152.13;5133907;27;20032;-36
2022/12/12 02:29:54;;;;;;;18.55;13.57;;;;;;;-0.72;100.00;101160.31;5133642;27;20084;-36
2022/12/12 02:32:46;;;;;;;18.95;13.13;;;;;;;-0.68;100.00;101164.34;5133671;28;20056;-36
2022/12/12 02:35:52;;;;;;;14.90;11.60;;;;;;;-0.62;100.00;101160.25;5133863;27;20424;-37
2022/12/12 02:38:20;;;;;;;15.18;11.45;;;;;;;-0.64;100.00;101167.53;5133944;28;20091;-36
2022/12/12 02:41:11;;;;;;;17.67;12.60;;;;;;;-0.71;100.00;101171.78;5133876;27;20486;-36
2022/12/12 02:43:49;;;;;;;19.60;13.60;;;;;;;-0.83;100.00;101153.41;5133458;28;20463;-37
2022/12/12 02:46:28;;;;;;;16.38;11.98;;;;;;;-0.79;100.00;101160.06;5134171;28;20031;-37
2022/12/12 02:49:16;;;;;;;19.77;13.02;;;;;;;-0.74;100.00;101161.44;5132763;28;20106;-37
2022/12/12 02:51:44;;;;;;;15.18;12.25;;;;;;;-0.70;100.00;101162.81;5132006;28;20502;-37
2022/12/12 02:54:16;;;;;;;21.60;14.18;;;;;;;-0.83;100.00;101150.75;5133985;27;20023;-37
2022/12/12 02:56:46;;;;;;;19.00;13.55;;;;;;;-0.96;100.00;101144.94;5133481;27;20079;-36
2022/12/12 02:59:19;;;;;;;20.50;14.15;;;;;;;-0.93;100.00;101154.41;5135059;27;20459;-36
2022/12/12 03:01:52;;;;;;;17.67;13.02;;;;;;;-0.95;100.00;101153.75;5137529;27;20027;-36
2022/12/12 03:07:46;;;;;;;17.15;12.63;;;;;;;-0.96;100.00;101134.34;5073406;28;20140;-36
2022/12/12 03:10:14;;;;;;;17.60;13.38;;;;;;;-0.86;100.00;101152.84;5074039;28;20028;-36
2022/12/12 03:12:48;;;;;;;19.10;13.73;;;;;;;-0.91;100.00;101144.50;5073319;28;20035;-36
2022/12/12 03:15:22;;;;;;;20.23;13.85;;;;;;;-1.02;100.00;101158.81;5073799;28;20377;-36
2022/12/12 03:17:52;;;;;;;18.13;12.00;;;;;;;-0.95;100.00;101153.75;5073057;28;20032;-36
2022/12/12 03:20:46;;;;;;;20.33;13.32;;;;;;;-0.98;100.00;101154.88;5073650;28;20024;-36
2022/12/12 03:23:20;;;;;;;16.92;12.63;;;;;;;-1.01;100.00;101154.34;5073348;28;20451;-36
2022/12/12 03:25:57;;;;;;;18.15;13.05;;;;;;;-1.02;100.00;101155.31;5073295;28;20136;-36
2022/12/12 03:28:34;;;;;;;19.13;12.90;;;;;;;-1.00;100.00;101150.69;5073382;28;20119;-36
2022/12/12 03:31:04;;;;;;;18.17;13.15;;;;;;;-1.21;100.00;101148.31;5056988;28;20056;-36
2022/12/12 03:33:38;;;;;;;14.68;12.07;;;;;;;-1.11;100.00;101146.44;5073441;28;20036;-36
2022/12/12 03:36:14;;;;;;;18.13;13.23;;;;;;;-1.18;100.00;101158.59;5073447;28;20034;-36
2022/12/12 03:38:44;;;;;;;16.27;12.88;;;;;;;-1.19;100.00;101155.13;5113294;27;20031;-36
2022/12/12 03:41:19;;;;;;;16.70;12.73;;;;;;;-1.23;100.00;101151.09;5136123;27;20052;-36
2022/12/12 03:44:02;;;;;;;16.75;12.57;;;;;;;-1.15;100.00;101161.81;5136597;27;20370;-36
2022/12/12 03:46:36;;;;;;;22.08;14.05;;;;;;;-1.24;100.00;101160.03;5136005;27;20027;-36
2022/12/12 03:49:12;;;;;;;18.42;13.10;;;;;;;-1.20;100.00;101152.63;5136169;27;20024;-36
2022/12/12 03:51:44;;;;;;;16.42;12.93;;;;;;;-1.14;100.00;101152.03;5135963;27;20125;-36
2022/12/12 03:54:18;;;;;;;18.33;13.05;;;;;;;-1.22;100.00;101159.88;5136165;27;20109;-36
2022/12/12 03:56:53;;;;;;;17.67;12.40;;;;;;;-1.22;100.00;101157.22;5136447;27;20522;-36
2022/12/12 03:59:33;;;;;;;17.17;12.52;;;;;;;-1.25;100.00;101162.84;5135927;27;20154;-36
2022/12/12 04:02:18;;;;;;;18.48;13.25;;;;;;;-1.32;100.00;101149.31;5136258;27;20068;-36
2022/12/12 04:04:51;;;;;;;17.65;12.05;;;;;;;-1.23;100.00;101174.13;5134813;27;20023;-35
2022/12/12 04:07:36;;;;;;;18.15;12.40;;;;;;;-1.25;100.00;101162.84;5136338;27;20060;-36
2022/12/12 04:13:04;;;;;;;18.65;13.63;;;;;;;-1.43;100.00;101168.06;5135738;27;20060;-37
2022/12/12 04:15:48;;;;;;;20.20;12.93;;;;;;;-1.38;100.00;101171.94;5136140;27;20027;-36
2022/12/12 04:18:17;;;;;;;17.75;12.48;;;;;;;-1.48;100.00;101160.53;5135736;27;20023;-36
2022/12/12 04:23:38;;;;;;;18.10;12.02;;;;;;;-1.55;100.00;101162.13;5115296;28;20054;-36
2022/12/12 04:29:05;;;;;;;19.10;13.07;;;;;;;-1.46;100.00;101176.34;5114596;28;20045;-36
2022/12/12 04:31:35;;;;;;;19.77;13.15;;;;;;;-1.50;100.00;101175.78;5113680;28;20035;-36
2022/12/12 04:34:06;;;;;;;18.20;12.85;;;;;;;-1.56;100.00;101184.31;5114862;28;20360;-37
2022/12/12 04:36:33;;;;;;;18.15;12.68;;;;;;;-1.53;100.00;101176.06;5114834;28;20019;-36
2022/12/12 04:39:00;;;;;;;17.83;13.38;;;;;;;-1.58;100.00;101175.66;5114891;28;20024;-36
2022/12/12 04:41:29;;;;;;;19.42;14.00;;;;;;;-1.64;100.00;101185.03;5115163;27;20031;-36
2022/12/12 04:43:56;;;;;;;19.98;14.70;;;;;;;-1.64;100.00;101194.81;5114842;28;20057;-36
2022/12/12 04:46:23;;;;;;;;;;;;;;;-1.60;100.00;101190.88;5114633;28;20031;-37
2022/12/12 04:48:56;;;;;;;19.75;12.55;;;;;;;-1.87;100.00;101168.59;5114958;28;19908;-36
2022/12/12 04:51:30;;;;;;;16.73;12.30;;;;;;;-1.78;100.00;101180.16;5114575;28;20031;-36
2022/12/12 04:54:12;;;;;;;18.90;13.73;;;;;;;-1.77;100.00;101197.75;5114879;28;20058;-36
2022/12/12 04:56:42;;;;;;;19.95;13.65;;;;;;;-1.73;100.00;101195.66;5114798;28;20418;-36
2022/12/12 04:59:08;;;;;;;20.00;14.48;;;;;;;-1.80;100.00;101183.97;5114920;28;20329;-36
2022/12/12 05:01:44;;;;;;;19.77;14.13;;;;;;;-1.83;100.00;101191.19;5115004;27;20111;-36
2022/12/12 05:04:20;;;;;;;17.63;12.45;;;;;;;-1.80;100.00;101189.25;5113893;28;20371;-36
2022/12/12 05:06:52;;;;;;;17.80;12.85;;;;;;;-1.85;100.00;101192.34;5114519;28;20168;-36
2022/12/12 05:09:18;;;;;;;19.73;14.27;;;;;;;-1.84;100.00;101188.69;5114316;28;20023;-36
2022/12/12 05:11:43;;;;;;;17.75;13.10;;;;;;;-1.75;100.00;101185.19;5113989;28;20016;-36
2022/12/12 05:14:10;;;;;;;18.00;13.40;;;;;;;-1.78;100.00;101195.25;5112859;28;20135;-37
2022/12/12 05:16:44;;;;;;;;;;;;;;;-1.65;100.00;101187.84;5114348;28;20461;-36
2022/12/12 05:19:09;;;;;;;17.83;12.30;;;;;;;-1.76;100.00;101182.66;5114340;28;20382;-36
2022/12/12 05:21:35;;;;;;;20.57;13.47;;;;;;;-1.85;100.00;101182.56;5089243;28;20040;-36
2022/12/12 05:24:00;;;;;;;21.37;13.70;;;;;;;-1.96;100.00;101171.25;5092931;28;20024;-36
2022/12/12 05:26:29;;;;;;;19.07;13.43;;;;;;;-1.88;100.00;101188.13;5093513;28;20036;-36
2022/12/12 05:28:55;;;;;;;18.15;12.77;;;;;;;-1.98;100.00;101174.06;5093554;28;20032;-36
2022/12/12 05:31:21;;;;;;;18.77;13.55;;;;;;;-1.97;100.00;101183.69;5093314;28;20032;-36
2022/12/12 05:33:46;;;;;;;20.58;13.75;;;;;;;-1.88;100.00;101193.44;5093727;28;20119;-35
2022/12/12 05:36:12;;;;;;;20.13;13.35;;;;;;;-1.94;100.00;101194.00;5093204;28;20110;-36
2022/12/12 05:38:38;;;;;;;17.77;12.38;;;;;;;-1.90;100.00;101187.47;5093154;28;20078;-36
2022/12/12 05:41:05;;;;;;;17.17;12.68;;;;;;;-1.94;100.00;101186.06;5093330;28;20115;-36
2022/12/12 05:43:30;;;;;;;;;;;;;;;-1.82;100.00;101203.47;5093799;28;20024;-36
2022/12/12 05:45:55;;;;;;;19.83;12.43;;;;;;;-1.97;100.00;101201.41;5092861;28;19964;-36
2022/12/12 05:48:21;;;;;;;17.75;12.38;;;;;;;-1.96;100.00;101203.91;5092877;28;20020;-36
2022/12/12 05:50:46;;;;;;;16.60;12.73;;;;;;;-1.99;100.00;101200.72;5091675;28;20453;-36
2022/12/12 05:53:12;;;;;;;19.73;13.37;;;;;;;-1.99;100.00;101206.84;5093834;28;20371;-36
2022/12/12 05:55:37;;;;;;;17.70;13.13;;;;;;;-1.97;100.00;101204.06;5092895;28;20034;-36
2022/12/12 05:58:03;;;;;;;18.95;13.00;;;;;;;-1.98;100.00;101205.03;5092672;28;20103;-36
2022/12/12 06:00:28;;;;;;;18.63;13.33;;;;;;;-2.04;100.00;101197.66;5092908;28;20451;-36
2022/12/12 06:02:53;;;;;;;17.07;12.73;;;;;;;-2.01;100.00;101195.53;5092670;28;20473;-36
2022/12/12 06:05:19;;;;;;;18.83;14.07;;;;;;;-2.07;100.00;101204.06;5092881;28;20266;-36
2022/12/12 06:07:44;;;;;;;23.10;13.68;;;;;;;-2.08;100.00;101203.22;5092663;28;20027;-36
2022/12/12 06:10:10;;;;;;;20.10;13.80;;;;;;;-2.13;100.00;101202.81;5092844;28;20111;-36
2022/12/12 06:12:35;;;;;;;19.03;13.27;;;;;;;-2.15;100.00;101207.41;5092943;28;20032;-35
2022/12/12 06:15:00;;;;;;;20.03;12.37;;;;;;;-2.12;100.00;101201.81;5091742;28;20035;-35
2022/12/12 06:17:26;;;;;;;19.67;12.83;;;;;;;-2.05;100.00;101201.25;5093558;28;20371;-36
2022/12/12 06:19:51;;;;;;;21.63;14.47;;;;;;;-2.19;100.00;101210.50;5091990;28;20047;-36
2022/12/12 06:22:17;;;;;;;19.33;13.52;;;;;;;-2.21;100.00;101218.56;5118001;28;20047;-36
2022/12/12 06:24:43;;;;;;;19.88;13.60;;;;;;;-2.23;100.00;101212.56;5133631;27;20023;-36
2022/12/12 06:27:08;;;;;;;20.03;12.93;;;;;;;-2.18;100.00;101212.16;5134176;27;20397;-36
2022/12/12 06:29:33;;;;;;;20.60;14.13;;;;;;;-2.33;100.00;101209.09;5133927;27;20050;-35
2022/12/12 06:31:59;;;;;;;20.03;13.13;;;;;;;-2.28;100.00;101217.44;5132613;28;20065;-36
2022/12/12 06:34:24;;;;;;;20.33;13.57;;;;;;;-2.57;100.00;101196.22;5135700;27;20030;-36
2022/12/12 06:36:49;;;;;;;21.23;14.60;;;;;;;-2.49;100.00;101222.00;5137405;27;20391;-35
2022/12/12 06:39:15;;;;;;;18.77;12.60;;;;;;;-2.49;100.00;101228.16;5138435;27;20023;-35
2022/12/12 06:41:40;;;;;;;24.90;14.77;;;;;;;-2.64;100.00;101221.56;5137234;27;20029;-35
2022/12/12 06:44:05;;;;;;;19.90;14.20;;;;;;;-2.64;100.00;101229.50;5137559;27;20534;-35
2022/12/12 06:46:31;;;;;;;22.93;14.57;;;;;;;-2.67;100.00;101232.44;5137455;27;20027;-35
2022/12/12 06:48:57;;;;;;;20.10;14.37;;;;;;;-2.68;100.00;101236.91;5137136;27;20085;-35
2022/12/12 06:51:28;;;;;;;21.00;13.35;;;;;;;-2.68;100.00;101228.97;5137046;27;20019;-36
2022/12/12 06:53:55;;;;;;;19.48;12.85;;;;;;;-2.67;100.00;101240.38;5137802;27;20080;-36
2022/12/12 06:56:25;;;;;;;19.02;12.93;;;;;;;-2.66;100.00;101229.66;5137155;27;20046;-36
2022/12/12 06:58:51;;;;;;;19.88;12.40;;;;;;;-2.54;100.00;101251.53;5137873;27;20033;-36
2022/12/12 07:01:19;;;;;;;21.92;13.45;;;;;;;-2.74;100.00;101237.41;5135628;27;20608;-36
2022/12/12 07:03:45;;;;;;;22.63;14.60;;;;;;;-2.75;100.00;101261.38;5137532;27;20035;-35
2022/12/12 07:06:11;;;;;;;;;;;;;;;-2.66;100.00;101250.81;5138250;27;20019;-35
2022/12/12 07:08:36;;;;;;;20.30;12.00;;;;;;;-2.72;100.00;101250.53;5137570;27;19911;-36
2022/12/12 07:11:09;;;;;;;23.80;12.90;;;;;;;-2.71;100.00;101244.28;5135842;27;20387;-36
2022/12/12 07:13:34;;;;;;;20.75;13.68;;;;;;;-2.68;100.00;101265.19;5136870;27;20035;-36
2022/12/12 07:16:00;;;;;;;18.67;13.33;;;;;;;-2.72;100.00;101242.59;5136919;27;20485;-36
2022/12/12 07:18:26;;;;;;;20.55;13.88;;;;;;;-2.74;100.00;101265.69;5136659;27;20031;-36
2022/12/12 07:20:51;;;;;;;21.80;14.57;;;;;;;-2.90;100.00;101261.75;5136575;27;20027;-36
2022/12/12 07:23:16;;;;;;;20.40;13.73;;;;;;;-2.87;100.00;101268.59;5137248;27;20352;-36
2022/12/12 07:25:43;;;;;;;21.73;14.23;;;;;;;-2.87;100.00;101261.50;5136650;27;20038;-36
2022/12/12 07:28:11;;;;;;;18.63;12.27;;;;;;;-2.76;100.00;101267.66;5136852;27;20061;-36
2022/12/12 07:30:41;;;;;;;19.13;12.75;;;;;;;-2.74;100.00;101273.66;5135422;27;20043;-36
2022/12/12 07:33:07;;;;;;;20.35;12.18;;;;;;;-2.71;100.00;101274.22;5136642;27;20031;-36
2022/12/12 07:35:33;;;;;;;23.92;14.65;;;;;;;-2.86;100.00;101281.69;5135901;27;20133;-36
2022/12/12 07:37:58;;;;;;;22.70;15.07;;;;;;;-2.88;100.00;101277.50;5136241;27;20035;-36
2022/12/12 07:40:24;;;;;;;19.83;13.53;;;;;;;-2.85;100.00;101278.06;5136599;27;20023;-37
2022/12/12 07:42:49;;;;;;;21.47;13.60;;;;;;;-2.88;100.00;101264.25;5136958;27;20031;-37
2022/12/12 07:45:15;;;;;;;22.05;14.88;;;;;;;-2.85;100.00;101290.47;5136116;27;20420;-36
2022/12/12 07:47:40;;;;;;;20.17;13.50;;;;;;;-2.75;100.00;101277.28;5136354;27;20390;-37
2022/12/12 07:50:06;;;;;;;27.15;15.55;;;;;;;-2.93;100.00;101274.41;5136236;27;20027;-36
2022/12/12 07:52:31;;;;;;;21.77;13.63;;;;;;;-2.91;100.00;101281.25;5135970;27;20114;-37
2022/12/12 07:54:57;;;;;;;21.20;13.40;;;;;;;-2.92;100.00;101286.69;5136736;27;20148;-36
2022/12/12 07:57:22;;;;;;;23.33;13.13;;;;;;;-2.90;100.00;101282.94;5135965;27;20030;-36
2022/12/12 07:59:47;;;;;;;22.17;13.93;;;;;;;-2.89;100.00;101286.41;5136175;27;20019;-36
2022/12/12 08:02:13;;;;;;;19.83;12.53;;;;;;;-2.83;100.00;101285.03;5135841;27;20110;-36
2022/12/12 08:04:38;;;;;;;24.83;15.80;;;;;;;-3.12;100.00;101269.88;5136822;27;20102;-36
2022/12/12 08:07:03;;;;;;;24.40;14.63;;;;;;;-3.01;100.00;101300.72;5136005;27;20072;-36
2022/12/12 08:09:29;;;;;;;24.20;15.13;;;;;;;-3.21;100.00;101271.50;5136498;27;20085;-37
2022/12/12 08:11:56;;;;;;;22.37;13.43;;;;;;;-3.10;100.00;101286.47;5136652;27;20412;-35
2022/12/12 08:14:22;;;;;;;20.92;14.07;;;;;;;-2.99;100.00;101296.13;5136354;27;20015;-35
2022/12/12 08:16:47;;;;;;;20.75;15.13;;;;;;;-2.92;100.00;101299.91;5135768;27;20576;-35
2022/12/12 08:19:12;;;;;;;21.47;14.63;;;;;;;-2.96;100.00;101304.63;5135619;27;20027;-36
2022/12/12 08:21:38;;;;;;;24.97;14.73;;;;;;;-2.99;100.00;101310.19;5119780;27;20048;-35
2022/12/12 08:24:03;;;;;;;22.50;14.67;;;;;;;-2.96;100.00;101301.16;5094377;28;20020;-36
2022/12/12 08:26:30;;;;;;;19.73;13.47;;;;;;;-2.78;100.00;101299.56;5093719;28;20020;-36
2022/12/12 08:28:56;;;;;;;20.52;13.43;;;;;;;-2.64;100.00;101311.56;5094721;28;20062;-36
2022/12/12 08:31:22;;;;;;;23.05;14.30;;;;;;;-2.55;100.00;101310.78;5094378;28;20031;-36
2022/12/12 08:33:52;;;;;;;;;;;;;;;-2.52;100.00;101320.28;5094772;28;20024;-36
2022/12/12 08:36:28;;;;;;;23.85;14.93;;;;;;;-2.79;100.00;101311.09;5094093;28;19912;-36
2022/12/12 08:38:54;;;;;;;19.90;13.07;;;;;;;-2.64;100.00;101308.94;5094458;28;20032;-36
2022/12/12 08:41:20;;;;;;;25.88;16.45;;;;;;;-2.62;100.00;101312.31;5094249;28;20452;-36
2022/12/12 08:43:46;;;;;;;23.33;14.13;;;;;;;-2.52;100.00;101318.47;5094417;28;20058;-36
2022/12/12 08:46:13;;;;;;;23.10;15.10;;;;;;;-2.61;100.00;101319.25;5094098;28;20123;-35
2022/12/12 08:48:39;;;;;;;22.35;14.90;;;;;;;-2.60;100.00;101315.63;5093024;28;20448;-35
2022/12/12 08:51:04;;;;;;;26.63;15.52;;;;;;;-2.62;100.00;101302.53;5094091;28;20062;-36
2022/12/12 08:53:30;;;;;;;22.25;13.45;;;;;;;-2.57;100.00;101309.25;5093737;28;20032;-36
2022/12/12 08:55:55;;;;;;;23.00;14.30;;;;;;;-2.35;100.00;101319.63;5093913;28;20024;-36
2022/12/12 08:58:21;;;;;;;21.70;13.73;;;;;;;-2.18;100.00;101323.44;5093789;28;20413;-35
2022/12/12 09:00:46;;;;;;;22.20;14.20;;;;;;;-2.10;100.00;101312.97;5094052;28;20047;-36
2022/12/12 09:03:12;;;;;;;19.27;12.67;;;;;;;-1.90;100.00;101306.75;5093580;28;20038;-35
2022/12/12 09:05:44;;;;;;;23.90;14.80;;;;;;;-2.11;100.00;101306.84;5093789;28;20090;-35
2022/12/12 09:08:11;;;;;;;21.33;13.65;;;;;;;-1.99;100.00;101334.06;5094427;28;20051;-35
2022/12/12 09:10:37;;;;;;;21.70;13.75;;;;;;;-1.86;100.00;101333.78;5094082;28;20020;-36
2022/12/12 09:13:04;;;;;;;22.33;12.93;;;;;;;-1.76;100.00;101328.50;5094277;28;20039;-36
2022/12/12 09:15:29;;;;;;;;;;;;;;;-1.65;100.00;101325.72;5094112;28;20020;-36
2022/12/12 09:17:54;;;;;;;23.85;13.95;;;;;;;-1.74;100.00;101330.03;5093628;28;19999;-36
2022/12/12 09:20:20;;;;;;;20.27;12.73;;;;;;;-1.63;100.00;101331.72;5093401;28;20069;-36
2022/12/12 09:22:45;;;;;;;25.03;14.80;;;;;;;-1.71;100.00;101339.53;5127206;27;20503;-36
2022/12/12 09:25:10;;;;;;;22.20;13.70;;;;;;;-1.73;100.00;101338.84;5134672;27;20421;-36
2022/12/12 09:27:36;;;;;;;20.90;13.67;;;;;;;-1.73;100.00;101336.19;5134510;27;20027;-36
2022/12/12 09:30:02;;;;;;;19.87;13.30;;;;;;;-1.76;100.00;101328.50;5133357;27;20042;-36
2022/12/12 09:32:27;;;;;;;23.15;13.57;;;;;;;-1.77;100.00;101338.25;5134287;27;20027;-37
2022/12/12 09:34:52;;;;;;;21.20;13.27;;;;;;;-1.70;100.00;101334.09;5134647;27;20360;-36
2022/12/12 09:37:18;;;;;;;24.27;14.23;;;;;;;-1.63;100.00;101334.38;5134182;27;20023;-36
2022/12/12 09:39:43;;;;;;;27.08;15.13;;;;;;;-1.58;100.00;101329.47;5134853;27;20027;-36
2022/12/12 09:42:15;;;;;;;23.10;14.13;;;;;;;-1.40;100.00;101330.44;5115886;27;20429;-36
2022/12/12 09:44:40;;;;;;;20.17;12.55;;;;;;;-1.41;100.00;101322.66;5133920;27;20402;-36
2022/12/12 09:47:14;;;;;;;20.67;12.97;;;;;;;-1.43;100.00;101314.81;5134101;27;20042;-36
2022/12/12 09:49:47;;;;;;;23.35;12.80;;;;;;;-1.36;100.00;101321.25;5134616;27;20050;-36
2022/12/12 09:52:22;;;;;;;21.48;12.95;;;;;;;-1.32;100.00;101319.97;5134577;27;20035;-36
2022/12/12 09:54:47;;;;;;;20.63;12.75;;;;;;;-1.30;100.00;101322.47;5132583;27;20055;-36
2022/12/12 09:57:35;;;;;;;22.27;13.57;;;;;;;-1.22;100.00;101311.13;5133812;27;20027;-36
2022/12/12 10:00:11;;;;;;;22.25;13.85;;;;;;;-1.21;100.00;101315.50;5133903;27;20478;-36
2022/12/12 10:02:58;;;;;;;19.73;12.27;;;;;;;-1.17;100.00;101319.50;5134591;27;20526;-36
2022/12/12 10:05:32;;;;;;;24.55;14.30;;;;;;;-1.38;100.00;101315.22;5134355;27;20042;-36
2022/12/12 10:08:12;;;;;;;21.48;13.43;;;;;;;-1.32;100.00;101317.31;5134542;27;20034;-36
2022/12/12 10:10:41;;;;;;;21.98;13.90;;;;;;;-1.30;100.00;101317.16;5138261;27;20031;-36
2022/12/12 10:13:15;;;;;;;21.88;12.18;;;;;;;-1.15;100.00;101326.34;5137901;27;20031;-36
2022/12/12 10:15:45;;;;;;;19.33;12.05;;;;;;;-0.93;100.00;101321.69;5138997;27;20394;-36
2022/12/12 10:18:23;;;;;;;19.80;12.07;;;;;;;-0.80;100.00;101323.03;5138129;27;20027;-36
2022/12/12 10:20:52;;;;;;;22.00;12.32;;;;;;;-0.84;100.00;101321.66;5138168;27;20023;-36
2022/12/12 10:23:42;;;;;;;21.10;11.43;;;;;;;-0.77;100.00;101313.97;5138106;27;20031;-36
2022/12/12 10:26:16;;;;;;;19.80;10.98;;;;;;;-0.60;100.00;101317.66;5138027;27;20027;-36
2022/12/12 10:28:43;;;;;;;18.10;11.25;;;;;;;-0.52;100.00;101320.41;5138297;27;20364;-36
2022/12/12 10:31:11;;;;;;;19.08;10.98;;;;;;;-0.50;100.00;101315.78;5137546;27;20032;-36
2022/12/12 10:33:53;;;;;;;17.98;10.70;;;;;;;-0.41;100.00;101314.91;5137774;27;20027;-36
2022/12/12 10:36:37;;;;;;;16.40;10.73;;;;;;;-0.30;100.00;101311.19;5136495;27;20030;-36
2022/12/12 10:39:16;;;;;;;19.30;11.20;;;;;;;-0.43;100.00;101302.75;5137976;27;20027;-36
2022/12/12 10:42:02;;;;;;;16.27;10.98;;;;;;;-0.32;100.00;101307.88;5137762;27;20323;-36
2022/12/12 10:44:42;;;;;;;15.40;10.25;;;;;;;-0.22;100.00;101300.66;5137888;27;20031;-36
2022/12/12 10:47:11;;;;;;;17.35;11.25;;;;;;;-0.20;100.00;101301.34;5137489;27;20375;-36
2022/12/12 10:49:37;;;;;;;17.88;10.85;;;;;;;-0.17;99.79;101293.09;5137745;27;20023;-36
2022/12/12 10:52:10;;;;;;;17.90;10.82;;;;;;;-0.19;99.74;101294.22;5137578;27;20420;-36
2022/12/12 10:54:43;;;;;;;17.77;10.65;;;;;;;-0.28;98.38;101286.16;5137711;27;20023;-36
2022/12/12 10:57:14;;;;;;;17.13;11.27;;;;;;;-0.16;100.00;101293.91;5137854;27;20042;-36
2022/12/12 10:59:45;;;;;;;20.50;10.90;;;;;;;-0.08;100.00;101291.34;5138127;27;20023;-36
2022/12/12 11:02:38;;;;;;;18.95;10.93;;;;;;;0.13;100.00;101297.19;5137516;27;20105;-36
2022/12/12 11:05:34;;;;;;;17.65;10.25;;;;;;;0.12;99.46;101297.34;5137297;27;20064;-36
2022/12/12 11:08:18;;;;;;;16.65;10.93;;;;;;;0.14;99.89;101295.38;5137419;27;20054;-37
2022/12/12 11:10:43;;;;;;;19.55;11.68;;;;;;;-0.04;98.23;101276.78;5137192;27;20031;-36
2022/12/12 11:13:08;;;;;;;18.10;11.60;;;;;;;0.06;98.40;101287.34;5136803;27;20073;-36
2022/12/12 11:16:03;;;;;;;16.83;10.77;;;;;;;0.14;98.50;101290.88;5135773;27;20277;-36
2022/12/12 11:18:29;;;;;;;18.52;10.93;;;;;;;0.12;97.17;101292.88;5053109;28;20041;-36
2022/12/12 11:21:10;;;;;;;16.33;10.15;;;;;;;0.26;99.17;101286.19;5052732;28;20041;-36
2022/12/12 11:23:39;;;;;;;15.85;10.63;;;;;;;-0.05;96.34;101267.09;5053435;28;20102;-36
2022/12/12 11:26:10;;;;;;;15.73;10.23;;;;;;;0.19;97.15;101291.25;5053100;28;20401;-36
2022/12/12 11:28:37;;;;;;;14.15;9.38;;;;;;;0.26;99.80;101275.53;5053019;28;20482;-37